Flight Track Log - Related Links

Times and Time Zones

All times are in EDT time to prevent confusion due to time zone crossing. See the EMD27 flight status page for this flight to view local times or setup timezone preferences in your user account.

Time Position Orientation Groundspeed Altitude Reporting Facility
EDT Latitude Longitude Course Direction KTS MPH feet Rate Location/Type
Mon 03:04:43 PM 33.5256 -82.0503 328° Northwest 156 180 4,500  Level Atlanta Center
Mon 03:05:43 PM 33.5678 -82.0792 330° Northwest 156 180 5,400 950 Climbing Atlanta Center
Mon 03:06:43 PM 33.6119 -82.1031 336° Northwest 162 186 6,400 1,100 Climbing Atlanta Center
Mon 03:07:00 PM 33.6613 -82.1353 331° Northwest  Level FlightAware Approximate
Mon 03:07:43 PM 33.6564 -82.1297 333° Northwest 167 192 7,600  Level Atlanta Center
Mon 03:08:00 PM 33.6992 -82.1720 345° North  Level FlightAware Approximate
Mon 03:08:43 PM 33.6983 -82.1561 332° Northwest 167 192 8,600  Level Atlanta Center
Mon 03:09:00 PM 33.7505 -82.1962 328° Northwest  Level FlightAware Approximate
Mon 03:09:43 PM 33.7406 -82.1828 332° Northwest 167 192 9,600  Level Atlanta Center
Mon 03:10:43 PM 33.7806 -82.2069 333° Northwest 167 192 10,600 1,100 Climbing Atlanta Center
Mon 03:11:43 PM 33.8269 -82.2383 331° Northwest 167 192 11,800 700 Climbing Atlanta Center
Mon 03:12:43 PM 33.8753 -82.2672 334° Northwest 172 198 12,000 100 Climbing Atlanta Center
Mon 03:13:43 PM 33.9239 -82.3014 330° Northwest 197 227 12,000  Level Atlanta Center
Mon 03:14:43 PM 33.9786 -82.3378 331° Northwest 214 246 12,000  Level Atlanta Center
Mon 03:15:43 PM 34.0375 -82.3742 333° Northwest 228 262 12,000  Level Atlanta Center
Mon 03:16:43 PM 34.0922 -82.4108 331° Northwest 228 262 12,000  Level Atlanta Center
Mon 03:17:43 PM 34.1511 -82.4450 334° Northwest 222 255 12,000  Level Atlanta Center
Mon 03:18:43 PM 34.2081 -82.4814 332° Northwest 222 255 12,000  Level Atlanta Center
Mon 03:19:43 PM 34.2650 -82.5181 332° Northwest 222 255 12,000  Level Atlanta Center
Mon 03:20:43 PM 34.3194 -82.5547 331° Northwest 222 255 12,000  Level Atlanta Center
Mon 03:21:43 PM 34.3742 -82.5892 333° Northwest 222 255 12,000  Level Atlanta Center
Mon 03:22:43 PM 34.4331 -82.6258 333° Northwest 235 270 12,000  Level Atlanta Center
Mon 03:23:43 PM 34.4858 -82.6628 330° Northwest 220 253 12,000  Level Atlanta Center
Mon 03:24:43 PM 34.5572 -82.7044 334° Northwest 277 319 12,000  Level Atlanta Center
Mon 03:25:43 PM 34.5992 -82.7342 330° Northwest 246 283 12,000  Level Atlanta Center
Mon 03:26:43 PM 34.6558 -82.7711 332° Northwest 213 245 12,000  Level Atlanta Center
Mon 03:27:43 PM 34.7022 -82.8008 332° Northwest 208 239 12,000  Level Atlanta Center
Mon 03:28:43 PM 34.7567 -82.8378 331° Northwest 208 239 12,000  Level Atlanta Center
Mon 03:29:43 PM 34.8114 -82.8725 332° Northwest 213 245 12,000  Level Atlanta Center
Mon 03:30:43 PM 34.8700 -82.9097 332° Northwest 213 245 12,000 50 Level Atlanta Center
Mon 03:31:43 PM 34.9206 -82.9419 332° Northwest 220 253 12,100 50 Climbing Atlanta Center
Mon 03:32:43 PM 34.9750 -82.9792 331° Northwest 226 260 12,100 -50 Level Atlanta Center
Mon 03:33:43 PM 35.0297 -83.0192 329° Northwest 226 260 12,000 -50 Descending Atlanta Center
Mon 03:34:43 PM 35.0842 -83.0514 334° Northwest 226 260 12,000  Level Atlanta Center
Mon 03:35:43 PM 35.1367 -83.0864 331° Northwest 226 260 12,000  Level Atlanta Center
Mon 03:36:43 PM 35.1911 -83.1239 331° Northwest 226 260 12,000  Level Atlanta Center
Mon 03:37:43 PM 35.2497 -83.1561 336° Northwest 219 252 12,000 50 Level Atlanta Center
Mon 03:38:43 PM 35.3003 -83.1914 330° Northwest 219 252 12,100 250 Climbing Atlanta Center
Mon 03:39:43 PM 35.3608 -83.2339 330° Northwest 219 252 12,500 600 Climbing Atlanta Center
Mon 03:40:43 PM 35.4111 -83.2667 332° Northwest 219 252 13,300 700 Climbing Atlanta Center
Mon 03:41:43 PM 35.4572 -83.2994 330° Northwest 206 237 13,900 350 Climbing Atlanta Center
Mon 03:42:43 PM 35.5097 -83.3294 335° Northwest 201 231 14,000 50 Climbing Atlanta Center
Mon 03:43:43 PM 35.5619 -83.3672 330° Northwest 209 241 14,000  Level Atlanta Center
Mon 03:44:43 PM 35.6186 -83.4053 331° Northwest 215 247 14,000  Level Atlanta Center
Mon 03:45:43 PM 35.6731 -83.4406 332° Northwest 220 253 14,000  Level Atlanta Center
Mon 03:46:43 PM 35.7275 -83.4786 330° Northwest 220 253 14,000  Level Atlanta Center
Mon 03:47:43 PM 35.7797 -83.5139 331° Northwest 220 253 14,000  Level Atlanta Center
Mon 03:48:43 PM 35.8342 -83.5494 332° Northwest 220 253 14,000  Level Atlanta Center
Mon 03:49:43 PM 35.8886 -83.5850 332° Northwest 220 253 14,000  Level Atlanta Center
Mon 03:50:43 PM 35.9428 -83.6233 330° Northwest 220 253 14,000  Level Atlanta Center
Mon 03:51:43 PM 35.9972 -83.6589 332° Northwest 220 253 14,000  Level Atlanta Center
Mon 03:52:43 PM 36.0517 -83.6944 332° Northwest 220 253 14,000  Level Atlanta Center
Mon 03:53:43 PM 36.1081 -83.7303 333° Northwest 220 253 14,000  Level Atlanta Center
Mon 03:54:43 PM 36.1603 -83.7686 329° Northwest 220 253 14,000  Level Atlanta Center
Mon 03:55:43 PM 36.2167 -83.8072 331° Northwest 220 253 14,000  Level Atlanta Center
Mon 03:56:43 PM 36.2708 -83.8431 332° Northwest 220 253 14,000 -624 Level Atlanta Center
Mon 03:59:05 PM 36.4100 -83.9353 332° Northwest 243 280 11,900 -882 Descending Indianapolis Center
Mon 04:00:07 PM 36.4697 -83.9767 331° Northwest 245 282 11,000 -871 Descending Indianapolis Center
Mon 04:01:09 PM 36.5303 -84.0186 331° Northwest 249 287 10,100 -1,065 Descending Indianapolis Center
Mon 04:02:11 PM 36.5911 -84.0592 332° Northwest 249 287 8,800 -1,258 Descending Indianapolis Center
Mon 04:03:13 PM 36.6492 -84.0986 331° Northwest 242 278 7,500 -1,645 Descending Indianapolis Center
Mon 04:04:15 PM 36.7142 -84.1439 331° Northwest 233 268 5,400 -1,935 Descending Indianapolis Center
Mon 04:05:17 PM 36.7683 -84.1811 331° Northwest 226 260 3,500 -1,500 Descending Indianapolis Center
Mon 04:06:19 PM 36.8150 -84.2172 328° Northwest 211 243 2,300 -1,161 Descending Indianapolis Center

Login

Don't have an account? Register now (free) for customized features, flight alerts, and more!